首页
METAR-TAF:

METAR-TAF

机场 :

Blue River, 不列颠哥伦比亚, 加拿大

纬度: 52-08N, 经度: 119-18W, 海拔: 679米

当前天气观测

该预报发布于12小时和9分钟前的01:00 UTC
风速6节,风向
温度 25°C
湿度 22%
气压 1019 hPa
能見度: 24.1公里
少量云层高于10000英尺
少量云层高于28000英尺
散云层高于35000英尺

METAR: CYCP 210100Z 09006KT 15SM FEW100 FEW280 SCT350 25/02 A3008 RMK CU1CI1CI2 CU TR LAST STFD OBS/NEXT 211300Z SLP189 DENSITY ALT 3800FT

时间: 06:09 (13:09 UTC)


TAF: 丢失

超过4000个机场的气象观测和天气预报(METAR&TAF报告)。

可查询的气象台以黄色和红色小点在地图上表示。

将鼠标移到小点上方,可查看气象台名称。

然后点击查看天气观测和预报。

如需切换地图:点击带黑十字的绿色按钮放大地图;点击带横线的绿色按钮缩小地图;或者点击绿色箭头查看邻近地区的地图。


METAR-TAF: